Time;durP1;ratioP1;P1;durP2;ratioP2;P2;SDS_P1;SDS_P2;PMS_P1;PMS_P2;Temp;Humidity;BMP_temperature;BMP_pressure;BME280_temperature;BME280_humidity;BME280_pressure;Samples;Min_cycle;Max_cycle;Signal;HPM_P1;HPM_P2
2022/09/21 00:01:14;;;;;;;4.97;4.47;;;;;;;10.47;74.96;99480.56;5053532;27;103356;-66
2022/09/21 00:03:44;;;;;;;3.47;3.15;;;;;;;10.58;74.30;99483.44;5053886;27;102805;-66
2022/09/21 00:06:17;;;;;;;5.43;4.10;;;;;;;10.58;73.32;99488.72;5054024;27;103809;-66
2022/09/21 00:08:45;;;;;;;5.10;4.28;;;;;;;10.20;74.52;99488.34;5055763;27;104344;-66
2022/09/21 00:11:14;;;;;;;6.33;5.13;;;;;;;9.62;75.99;99493.44;5040879;27;103945;-66
2022/09/21 00:13:45;;;;;;;6.35;5.40;;;;;;;9.10;78.99;99494.56;5053600;27;102863;-66
2022/09/21 00:16:15;;;;;;;6.28;5.63;;;;;;;9.33;80.24;99494.19;5056405;27;102765;-66
2022/09/21 00:18:44;;;;;;;5.45;4.65;;;;;;;9.88;78.34;99489.28;5044565;27;103274;-66
2022/09/21 00:21:14;;;;;;;4.60;3.70;;;;;;;10.13;76.77;99488.78;5049640;27;103432;-65
2022/09/21 00:23:42;;;;;;;5.80;5.17;;;;;;;9.64;75.82;99491.56;5055842;27;102788;-66
2022/09/21 00:26:13;;;;;;;6.30;5.07;;;;;;;9.35;78.31;99492.31;5054506;27;104377;-66
2022/09/21 00:28:43;;;;;;;5.80;5.30;;;;;;;9.45;78.27;99503.22;5053860;27;103161;-66
2022/09/21 00:31:13;;;;;;;6.80;5.80;;;;;;;8.99;78.95;99491.66;5052893;27;103196;-66
2022/09/21 00:33:42;;;;;;;5.20;4.70;;;;;;;9.28;78.57;99490.94;5055366;27;102742;-65
2022/09/21 00:36:13;;;;;;;6.70;5.10;;;;;;;9.27;78.91;99490.09;5055287;27;104142;-65
2022/09/21 00:38:41;;;;;;;6.32;5.13;;;;;;;9.27;78.59;99490.09;5054225;27;103395;-65
2022/09/21 00:41:11;;;;;;;6.20;5.60;;;;;;;9.30;78.39;99494.34;5053681;27;103271;-65
2022/09/21 00:43:43;;;;;;;6.43;5.18;;;;;;;9.26;79.11;99493.66;5045440;27;103139;-65
2022/09/21 00:46:15;;;;;;;6.32;4.72;;;;;;;9.39;79.11;99493.84;5037778;27;104260;-66
2022/09/21 00:48:45;;;;;;;5.50;4.90;;;;;;;9.43;78.28;99494.53;5052297;27;103413;-66
2022/09/21 00:51:15;;;;;;;4.95;4.47;;;;;;;9.55;77.71;99488.56;5050887;27;103198;-65
2022/09/21 00:53:47;;;;;;;5.63;5.13;;;;;;;9.01;80.14;99489.81;5057230;27;103636;-65
2022/09/21 00:56:19;;;;;;;4.70;4.30;;;;;;;9.54;79.34;99495.66;5051811;27;103871;-66
2022/09/21 00:58:50;;;;;;;6.07;4.85;;;;;;;9.54;77.91;99493.00;5036722;27;104395;-65
2022/09/21 01:01:19;;;;;;;5.03;4.33;;;;;;;9.72;76.59;99501.66;5046720;27;103244;-66
2022/09/21 01:03:48;;;;;;;4.23;3.80;;;;;;;9.85;76.28;99492.97;5053665;27;102813;-65
2022/09/21 01:06:20;;;;;;;5.90;4.97;;;;;;;9.58;75.06;99499.81;5054518;27;102682;-66
2022/09/21 01:08:52;;;;;;;5.43;4.90;;;;;;;9.39;77.67;99504.41;5053846;27;103247;-65
2022/09/21 01:11:29;;;;;;;5.60;5.00;;;;;;;9.55;77.49;99494.69;5052145;27;103233;-65
2022/09/21 01:14:21;;;;;;;5.35;4.63;;;;;;;9.64;77.10;99491.56;5049160;27;104438;-65
2022/09/21 01:17:01;;;;;;;5.60;4.93;;;;;;;9.38;76.81;99494.78;5056714;27;103499;-65
2022/09/21 01:20:01;;;;;;;5.32;4.78;;;;;;;9.53;77.55;99491.31;5050683;27;103265;-65
2022/09/21 01:22:46;;;;;;;4.85;4.45;;;;;;;9.67;76.49;99487.88;5052410;27;103341;-66
2022/09/21 01:25:27;;;;;;;5.53;4.32;;;;;;;9.76;75.58;99492.66;5052994;27;103513;-65
2022/09/21 01:28:09;;;;;;;4.50;4.10;;;;;;;9.67;75.64;99488.75;5053857;27;103900;-66
2022/09/21 01:30:40;;;;;;;4.30;3.90;;;;;;;9.74;75.74;99497.19;5053657;27;103729;-66
2022/09/21 01:33:17;;;;;;;6.18;5.10;;;;;;;9.38;76.23;99497.41;5051997;27;103170;-65
2022/09/21 01:35:50;;;;;;;5.97;5.30;;;;;;;8.93;78.78;99499.88;5054471;27;103110;-65
2022/09/21 01:38:25;;;;;;;5.13;4.63;;;;;;;9.26;78.37;99503.38;5033239;27;104180;-65
2022/09/21 01:40:59;;;;;;;6.10;5.10;;;;;;;9.05;78.44;99502.75;5050781;27;103389;-66
2022/09/21 01:43:31;;;;;;;5.45;4.95;;;;;;;9.27;77.95;99505.06;5053924;27;103463;-65
2022/09/21 01:46:02;;;;;;;5.03;4.53;;;;;;;9.49;77.49;99508.22;5032912;27;102858;-74
2022/09/21 01:48:34;;;;;;;5.72;5.00;;;;;;;9.27;76.03;99505.06;5047295;27;102748;-74
2022/09/21 01:51:09;;;;;;;6.70;6.10;;;;;;;8.55;79.06;99505.41;5052582;27;104096;-74
2022/09/21 01:53:40;;;;;;;5.07;4.20;;;;;;;8.97;80.07;99499.66;5056875;27;103538;-74
2022/09/21 01:56:13;;;;;;;4.27;3.87;;;;;;;9.31;78.31;99501.34;5052799;27;102861;-74
2022/09/21 01:58:45;;;;;;;3.80;3.50;;;;;;;9.49;77.25;99508.22;5049568;27;104018;-73
2022/09/21 02:01:19;;;;;;;5.07;4.53;;;;;;;9.44;76.01;99499.72;5052368;27;104089;-73
2022/09/21 02:03:52;;;;;;;6.23;5.03;;;;;;;9.02;75.19;99496.75;5055934;27;103202;-74
2022/09/21 02:06:21;;;;;;;6.20;5.60;;;;;;;8.07;79.39;99497.28;5055341;27;103682;-74
2022/09/21 02:08:49;;;;;;;6.90;5.35;;;;;;;8.36;80.78;99498.50;5055766;27;103763;-74
2022/09/21 02:11:16;;;;;;;4.75;4.35;;;;;;;8.76;79.27;99502.59;5057926;27;104251;-74
2022/09/21 02:13:46;;;;;;;4.83;4.40;;;;;;;9.08;77.69;99504.34;5038535;27;104225;-74
2022/09/21 02:16:34;;;;;;;4.07;3.67;;;;;;;9.23;77.04;99495.63;5056552;27;102814;-74
2022/09/21 02:19:12;;;;;;;4.53;4.13;;;;;;;9.23;75.51;99504.38;5036815;27;103929;-74
2022/09/21 02:21:53;;;;;;;6.57;5.43;;;;;;;8.54;77.20;99498.41;5053150;27;103728;-73
2022/09/21 02:24:32;;;;;;;6.55;4.75;;;;;;;8.96;77.11;99494.44;5057425;27;103230;-74
2022/09/21 02:27:05;;;;;;;3.83;3.53;;;;;;;9.19;76.55;99491.44;5055840;27;102703;-74
2022/09/21 02:29:45;;;;;;;4.57;4.18;;;;;;;9.04;75.40;99489.66;5058598;27;102938;-72
2022/09/21 02:32:22;;;;;;;5.55;5.05;;;;;;;8.57;78.47;99493.00;5058988;27;104504;-73
2022/09/21 02:34:54;;;;;;;4.40;3.87;;;;;;;8.93;77.24;99490.19;5038262;27;104283;-74
2022/09/21 02:37:30;;;;;;;4.88;4.35;;;;;;;9.05;76.44;99483.44;5057090;27;102783;-73
2022/09/21 02:40:03;;;;;;;4.50;4.10;;;;;;;9.12;76.18;99482.19;5056065;27;103693;-74
2022/09/21 02:42:35;;;;;;;4.22;3.75;;;;;;;9.21;75.89;99486.94;5057760;27;103235;-74
2022/09/21 02:45:08;;;;;;;7.43;5.10;;;;;;;8.62;75.73;99488.31;5057031;27;103625;-74
2022/09/21 02:47:46;;;;;;;6.03;5.43;;;;;;;8.18;80.04;99489.72;5035889;27;102696;-74
2022/09/21 02:50:20;;;;;;;3.90;3.50;;;;;;;8.75;79.22;99485.91;5052831;27;103604;-74
2022/09/21 02:52:47;;;;;;;3.50;3.20;;;;;;;9.03;77.95;99490.56;5051083;27;104200;-74
2022/09/21 02:55:17;;;;;;;3.90;3.60;;;;;;;9.14;76.08;99494.34;5060503;27;104784;-74
2022/09/21 02:57:48;;;;;;;6.35;5.35;;;;;;;8.50;75.61;99496.03;5054284;27;103130;-74
2022/09/21 03:00:16;;;;;;;7.65;5.93;;;;;;;7.53;81.44;99496.41;5052104;27;104426;-74
2022/09/21 03:02:46;;;;;;;7.35;6.13;;;;;;;7.29;83.32;99500.22;5039650;27;104609;-74
2022/09/21 03:05:14;;;;;;;7.03;4.82;;;;;;;8.14;81.85;99491.63;5054331;27;103075;-74
2022/09/21 03:07:42;;;;;;;7.43;6.53;;;;;;;7.15;84.41;99493.88;5059309;27;102829;-73
2022/09/21 03:10:10;;;;;;;6.72;6.05;;;;;;;6.90;87.19;99488.88;5039696;27;104713;-74
2022/09/21 03:12:38;;;;;;;8.45;6.45;;;;;;;6.85;86.83;99485.59;5040268;27;104401;-73
2022/09/21 03:15:06;;;;;;;8.63;6.30;;;;;;;6.56;89.18;99493.91;5053043;27;103277;-73
2022/09/21 03:17:34;;;;;;;7.17;6.47;;;;;;;7.04;86.92;99491.75;5057794;27;104240;-73
2022/09/21 03:20:04;;;;;;;7.60;6.30;;;;;;;6.95;87.23;99502.66;5052114;27;105566;-74
2022/09/21 03:22:31;;;;;;;7.35;6.50;;;;;;;6.97;86.64;99495.56;5046575;27;103632;-73
2022/09/21 03:24:59;;;;;;;7.40;6.55;;;;;;;6.95;87.46;99492.16;5053908;27;103346;-74
2022/09/21 03:27:27;;;;;;;7.22;6.43;;;;;;;6.85;89.35;99498.72;5040776;27;102678;-74
2022/09/21 03:29:54;;;;;;;6.75;5.97;;;;;;;6.84;88.76;99505.78;5056280;27;103892;-74
2022/09/21 03:32:28;;;;;;;7.90;6.53;;;;;;;6.64;89.76;99502.31;5054052;27;103414;-74
2022/09/21 03:34:56;;;;;;;5.38;4.88;;;;;;;7.44;88.32;99507.34;5054970;27;103251;-73
2022/09/21 03:37:25;;;;;;;5.43;4.83;;;;;;;7.59;85.83;99505.78;5054718;27;103189;-74
2022/09/21 03:39:53;;;;;;;7.85;6.15;;;;;;;7.07;85.18;99512.63;5054911;27;103057;-73
2022/09/21 03:42:20;;;;;;;6.90;5.88;;;;;;;7.21;85.71;99512.00;5054656;27;103703;-75
2022/09/21 03:44:48;;;;;;;4.28;3.88;;;;;;;7.83;84.88;99514.31;5055753;27;103506;-74
2022/09/21 03:47:16;;;;;;;6.43;5.30;;;;;;;7.74;83.17;99509.47;5054241;27;104098;-75
2022/09/21 03:49:43;;;;;;;4.60;4.20;;;;;;;8.02;83.12;99517.72;5054712;27;102917;-75
2022/09/21 03:52:11;;;;;;;6.97;5.50;;;;;;;7.91;82.33;99513.00;5052301;27;103857;-74
2022/09/21 03:54:40;;;;;;;5.23;4.50;;;;;;;8.08;83.09;99517.44;5055547;27;103235;-75
2022/09/21 03:57:08;;;;;;;5.18;4.38;;;;;;;8.21;81.13;99518.53;5037089;27;103070;-74
2022/09/21 03:59:36;;;;;;;5.13;4.63;;;;;;;8.14;81.09;99517.09;5035521;27;102618;-75
2022/09/21 04:02:04;;;;;;;4.95;4.45;;;;;;;8.23;80.70;99513.16;5036042;27;104416;-75
2022/09/21 04:04:32;;;;;;;5.28;4.60;;;;;;;8.35;80.22;99521.34;5050084;27;103408;-74
2022/09/21 04:07:00;;;;;;;5.38;4.88;;;;;;;7.78;81.30;99521.53;5038375;27;102890;-74
2022/09/21 04:09:28;;;;;;;5.27;4.77;;;;;;;7.95;81.11;99524.19;5037308;27;104329;-74
2022/09/21 04:11:57;;;;;;;5.72;5.13;;;;;;;7.56;84.41;99519.94;5057586;27;104576;-74
2022/09/21 04:14:25;;;;;;;6.00;5.17;;;;;;;7.56;83.66;99522.56;5036026;27;103199;-73
2022/09/21 04:16:52;;;;;;;4.53;4.13;;;;;;;7.99;82.90;99515.25;5052902;27;102966;-74
2022/09/21 04:19:21;;;;;;;4.47;4.07;;;;;;;7.99;82.23;99520.50;5052755;27;103087;-74
2022/09/21 04:21:50;;;;;;;4.38;3.92;;;;;;;8.25;81.10;99522.72;5049418;27;103533;-74
2022/09/21 04:24:18;;;;;;;3.73;3.43;;;;;;;8.41;79.66;99518.41;5051485;27;102704;-74
2022/09/21 04:26:46;;;;;;;4.45;3.72;;;;;;;8.44;78.29;99518.25;5050846;27;104355;-74
2022/09/21 04:29:16;;;;;;;3.42;3.13;;;;;;;8.47;77.98;99522.50;5035423;27;102769;-75
2022/09/21 04:31:44;;;;;;;3.65;3.35;;;;;;;8.57;77.35;99529.00;5038474;27;104594;-74
2022/09/21 04:34:13;;;;;;;4.45;4.05;;;;;;;8.49;76.13;99531.19;5054740;27;103269;-74
2022/09/21 04:36:42;;;;;;;4.07;3.78;;;;;;;8.48;76.27;99529.47;5056838;27;102986;-73
2022/09/21 04:39:10;;;;;;;3.53;3.25;;;;;;;8.50;75.52;99531.13;5037416;27;103191;-74
2022/09/21 04:41:37;;;;;;;4.40;4.00;;;;;;;8.33;76.44;99531.13;5056217;27;103989;-74
2022/09/21 04:44:05;;;;;;;4.50;4.10;;;;;;;8.34;76.67;99531.94;5047877;27;103304;-75
2022/09/21 04:46:34;;;;;;;3.90;3.60;;;;;;;8.37;76.04;99532.66;5055763;27;102866;-74
2022/09/21 04:49:02;;;;;;;4.28;3.88;;;;;;;8.37;75.56;99532.66;5052860;27;102671;-74
2022/09/21 04:51:30;;;;;;;4.10;3.70;;;;;;;8.40;75.32;99537.75;5049779;27;104060;-74
2022/09/21 04:53:58;;;;;;;4.03;3.70;;;;;;;8.45;75.42;99529.66;5052088;27;103304;-74
2022/09/21 04:56:29;;;;;;;4.70;3.95;;;;;;;8.41;74.95;99536.84;5055482;27;102964;-74
2022/09/21 04:58:57;;;;;;;6.03;4.05;;;;;;;8.25;75.20;99542.91;5052530;27;103767;-74
2022/09/21 05:01:27;;;;;;;4.55;3.88;;;;;;;8.03;75.89;99537.84;5053659;27;103475;-74
2022/09/21 05:04:00;;;;;;;5.30;4.80;;;;;;;7.64;77.84;99545.00;5018374;27;104223;-68
2022/09/21 05:06:28;;;;;;;6.40;5.43;;;;;;;6.90;81.25;99547.53;5026223;27;102792;-68
2022/09/21 05:11:41;;;;;;;5.68;5.00;;;;;;;6.57;85.55;99558.66;5043173;27;104828;-68
2022/09/21 05:14:10;;;;;;;4.50;4.10;;;;;;;7.31;83.69;99548.28;5025889;27;103175;-68
2022/09/21 05:16:40;;;;;;;3.80;3.50;;;;;;;7.63;81.21;99553.84;5044007;27;102984;-67
2022/09/21 05:19:09;;;;;;;3.80;3.40;;;;;;;7.91;80.58;99551.59;5043618;27;102768;-67
2022/09/21 05:21:39;;;;;;;3.30;3.03;;;;;;;8.08;78.77;99554.28;5040204;27;103196;-66
2022/09/21 05:24:07;;;;;;;4.05;3.65;;;;;;;7.86;78.44;99550.97;5045446;27;103406;-67
2022/09/21 05:26:35;;;;;;;4.07;3.67;;;;;;;7.84;78.34;99552.81;5015507;27;103096;-67
2022/09/21 05:29:04;;;;;;;4.13;3.83;;;;;;;7.90;78.46;99553.38;5026078;27;102731;-67
2022/09/21 05:31:41;;;;;;;3.70;3.40;;;;;;;8.03;78.68;99553.63;5023258;27;103389;-67
2022/09/21 05:34:25;;;;;;;3.58;3.28;;;;;;;8.25;77.52;99554.31;5028836;27;103885;-67
2022/09/21 05:37:01;;;;;;;4.63;3.60;;;;;;;8.40;76.74;99557.97;5028902;27;102756;-67
2022/09/21 05:39:29;;;;;;;4.40;3.57;;;;;;;8.33;75.59;99562.72;5033766;27;104130;-67
2022/09/21 05:41:57;;;;;;;4.40;4.00;;;;;;;7.99;76.63;99562.63;5033678;27;104126;-67
2022/09/21 05:44:26;;;;;;;4.67;4.13;;;;;;;7.93;78.40;99557.63;5036384;27;104305;-67
2022/09/21 05:46:59;;;;;;;3.55;3.25;;;;;;;8.24;78.45;99563.13;5034901;27;102853;-67
2022/09/21 05:49:44;;;;;;;4.47;3.38;;;;;;;8.41;77.62;99563.19;5039455;27;103086;-67
2022/09/21 05:52:20;;;;;;;5.70;4.70;;;;;;;8.03;78.70;99565.00;5034778;27;103900;-67
2022/09/21 05:55:01;;;;;;;3.63;3.33;;;;;;;8.42;79.85;99567.50;5035071;27;103248;-67
2022/09/21 05:57:42;;;;;;;3.77;3.43;;;;;;;8.65;78.92;99574.25;5038721;27;102746;-67
2022/09/21 06:00:17;;;;;;;7.60;4.28;;;;;;;8.81;77.22;99563.78;5038294;27;104070;-67
2022/09/21 06:03:08;;;;;;;5.93;4.75;;;;;;;8.41;79.48;99576.34;5052904;27;104869;-67
2022/09/21 06:05:42;;;;;;;5.97;4.83;;;;;;;8.30;81.17;99581.28;5035589;27;104210;-67
2022/09/21 06:08:12;;;;;;;4.75;4.05;;;;;;;8.74;80.59;99574.63;5031277;27;102693;-67
2022/09/21 06:10:40;;;;;;;3.60;3.20;;;;;;;9.04;79.87;99571.38;5036891;27;102931;-68
2022/09/21 06:13:09;;;;;;;4.80;3.80;;;;;;;9.26;78.39;99572.75;5036512;27;104112;-68
2022/09/21 06:15:37;;;;;;;7.53;4.22;;;;;;;9.38;77.37;99571.25;5034201;27;105109;-68
2022/09/21 06:18:08;;;;;;;8.68;4.40;;;;;;;9.50;76.88;99577.66;5031793;27;102664;-68
2022/09/21 06:20:42;;;;;;;11.80;4.80;;;;;;;9.51;77.10;99582.00;5037136;27;104502;-67
2022/09/21 06:23:12;;;;;;;7.72;4.60;;;;;;;9.51;76.43;99588.16;5034159;27;105545;-67
2022/09/21 06:25:39;;;;;;;5.20;3.50;;;;;;;9.68;76.62;99584.59;5033718;27;103246;-67
2022/09/21 06:28:09;;;;;;;3.97;3.40;;;;;;;9.68;77.06;99590.72;5036826;27;102777;-67
2022/09/21 06:30:38;;;;;;;4.30;3.88;;;;;;;9.84;77.08;99581.03;5033900;27;104573;-67
2022/09/21 06:33:07;;;;;;;7.93;5.40;;;;;;;8.39;82.39;99590.53;5028736;27;104203;-67
2022/09/21 06:35:36;;;;;;;8.80;6.43;;;;;;;8.24;84.88;99589.44;5025031;27;103276;-67
2022/09/21 06:38:07;;;;;;;9.50;6.63;;;;;;;7.93;86.03;99589.22;5033828;27;102723;-67
2022/09/21 06:40:36;;;;;;;12.18;7.28;;;;;;;8.22;86.57;99593.94;5035459;27;104201;-67
2022/09/21 06:43:05;;;;;;;8.52;6.22;;;;;;;8.93;84.63;99585.06;5034074;27;104116;-67
2022/09/21 06:45:33;;;;;;;5.75;5.07;;;;;;;9.49;82.62;99584.72;5037321;27;103320;-66
2022/09/21 06:48:01;;;;;;;8.05;6.15;;;;;;;9.80;80.78;99590.03;5037500;27;103064;-66
2022/09/21 06:50:29;;;;;;;8.55;6.95;;;;;;;9.65;81.37;99585.63;5032490;27;103958;-66
2022/09/21 06:53:00;;;;;;;8.15;7.00;;;;;;;9.30;81.85;99586.66;5031055;27;104178;-66
2022/09/21 06:55:29;;;;;;;9.73;7.57;;;;;;;9.07;83.46;99587.84;5032535;27;103256;-67
2022/09/21 06:58:00;;;;;;;10.73;7.50;;;;;;;9.30;84.82;99590.13;5033149;27;102837;-66
2022/09/21 07:00:29;;;;;;;7.50;6.70;;;;;;;10.04;82.27;99590.47;5036530;27;102900;-66
2022/09/21 07:02:57;;;;;;;8.63;7.00;;;;;;;10.42;79.58;99583.03;5035326;27;104565;-67
2022/09/21 07:05:25;;;;;;;8.23;6.93;;;;;;;10.71;78.35;99584.81;5034649;27;103376;-66
2022/09/21 07:07:56;;;;;;;7.32;6.63;;;;;;;10.88;76.37;99584.69;5036244;27;102799;-67
2022/09/21 07:10:29;;;;;;;11.73;7.50;;;;;;;9.76;81.42;99585.88;5035531;27;103783;-67
2022/09/21 07:13:03;;;;;;;9.52;7.60;;;;;;;10.35;80.68;99576.41;5034889;27;104183;-67
2022/09/21 07:15:30;;;;;;;6.82;6.18;;;;;;;11.19;78.25;99574.91;5022550;27;103467;-66
2022/09/21 07:17:59;;;;;;;7.72;6.55;;;;;;;11.63;75.46;99575.63;5021229;27;103487;-66
2022/09/21 07:20:34;;;;;;;8.20;6.00;;;;;;;11.68;75.71;99578.84;5031654;27;104133;-67
2022/09/21 07:23:10;;;;;;;6.57;5.97;;;;;;;12.01;74.44;99576.72;5049580;27;104133;-66
2022/09/21 07:25:39;;;;;;;6.18;5.65;;;;;;;12.35;73.61;99574.56;5032310;27;103516;-67
2022/09/21 07:28:07;;;;;;;9.82;7.07;;;;;;;11.15;76.90;99584.81;5035902;27;102652;-67
2022/09/21 07:30:36;;;;;;;8.38;6.97;;;;;;;11.90;74.15;99578.38;5035122;27;102963;-67
2022/09/21 07:33:05;;;;;;;7.13;6.15;;;;;;;12.65;71.35;99580.47;5036829;27;104097;-66
2022/09/21 07:35:34;;;;;;;7.22;6.38;;;;;;;13.13;71.30;99579.84;5036415;27;103104;-67
2022/09/21 07:38:04;;;;;;;8.00;7.07;;;;;;;13.31;69.68;99586.50;5035515;27;102635;-67
2022/09/21 07:40:32;;;;;;;9.82;7.65;;;;;;;12.89;70.83;99578.81;5036549;27;103806;-66
2022/09/21 07:43:02;;;;;;;9.07;8.13;;;;;;;12.66;72.53;99585.66;5036178;27;103322;-66
2022/09/21 07:45:30;;;;;;;10.38;7.85;;;;;;;13.34;71.05;99588.94;5035280;27;103229;-67
2022/09/21 07:48:03;;;;;;;8.65;7.32;;;;;;;13.47;68.32;99585.44;5032939;27;103053;-67
2022/09/21 07:50:32;;;;;;;9.20;7.20;;;;;;;12.98;70.31;99586.13;5036377;27;103506;-67
2022/09/21 07:53:00;;;;;;;8.55;6.95;;;;;;;14.12;70.05;99581.56;5035105;27;103283;-67
2022/09/21 07:55:28;;;;;;;8.90;6.53;;;;;;;14.88;62.96;99575.88;5035540;27;104231;-68
2022/09/21 08:00:43;;;;;;;8.50;5.80;;;;;;;15.34;63.41;99568.72;5034052;27;102810;-67
2022/09/21 08:03:11;;;;;;;7.57;6.07;;;;;;;16.05;62.91;99579.00;5033560;27;104172;-68
2022/09/21 08:05:39;;;;;;;7.07;6.30;;;;;;;15.91;59.89;99573.09;5034399;27;104269;-67
2022/09/21 08:08:07;;;;;;;6.88;6.18;;;;;;;16.31;62.13;99574.19;5033954;27;102744;-67
2022/09/21 08:10:36;;;;;;;8.88;6.70;;;;;;;15.42;62.05;99576.94;5033268;27;102958;-67
2022/09/21 08:13:03;;;;;;;6.35;4.82;;;;;;;16.52;61.70;99583.13;5034372;27;103912;-68
2022/09/21 08:15:31;;;;;;;6.50;4.80;;;;;;;16.10;60.80;99581.28;5036026;27;103297;-67
2022/09/21 08:18:18;;;;;;;5.85;4.53;;;;;;;16.38;61.06;99583.41;5037219;27;102833;-67
2022/09/21 08:20:54;;;;;;;7.30;4.47;;;;;;;17.49;57.28;99572.13;5033030;27;104990;-68
2022/09/21 08:23:22;;;;;;;5.60;5.00;;;;;;;16.71;59.62;99577.97;5036100;27;103491;-68
2022/09/21 08:25:50;;;;;;;9.00;5.47;;;;;;;15.53;60.66;99579.66;5028921;27;103461;-68
2022/09/21 08:28:18;;;;;;;6.30;5.60;;;;;;;14.84;63.77;99585.94;5030292;27;102677;-68
2022/09/21 08:30:46;;;;;;;6.05;5.20;;;;;;;15.74;61.99;99581.59;5036012;27;104147;-67
2022/09/21 08:33:14;;;;;;;7.75;5.00;;;;;;;16.67;60.55;99579.19;5034288;27;104434;-68
2022/09/21 08:35:43;;;;;;;6.53;4.72;;;;;;;14.42;66.06;99587.34;5032588;27;103400;-67
2022/09/21 08:38:11;;;;;;;5.63;4.20;;;;;;;16.70;61.07;99578.94;5028244;27;102702;-68
2022/09/21 08:40:41;;;;;;;4.57;4.13;;;;;;;16.31;61.11;99576.88;5032678;27;103884;-68
2022/09/21 08:43:12;;;;;;;5.70;4.57;;;;;;;16.46;60.25;99580.09;5032104;27;103676;-68
2022/09/21 08:45:44;;;;;;;6.05;4.63;;;;;;;17.37;59.63;99583.91;5022751;27;103554;-68
2022/09/21 08:48:19;;;;;;;6.20;4.20;;;;;;;17.95;55.42;99574.31;5024847;27;103067;-68
2022/09/21 08:50:57;;;;;;;4.85;3.53;;;;;;;17.47;56.68;99579.44;5023142;27;103817;-68
2022/09/21 08:53:33;;;;;;;4.78;3.50;;;;;;;18.65;57.30;99578.69;5023345;27;104049;-68
2022/09/21 08:56:01;;;;;;;6.18;4.15;;;;;;;18.39;57.11;99568.50;5021289;27;103333;-68
2022/09/21 08:58:31;;;;;;;3.72;3.28;;;;;;;18.83;54.12;99572.50;5026994;27;103307;-68
2022/09/21 09:01:14;;;;;;;6.10;4.03;;;;;;;19.26;51.85;99558.59;5025387;27;104221;-68
2022/09/21 09:04:01;;;;;;;5.50;3.90;;;;;;;19.27;55.38;99562.97;5020940;27;103273;-68
2022/09/21 09:06:43;;;;;;;7.38;3.50;;;;;;;19.00;53.92;99562.91;5029017;27;104920;-69
2022/09/21 09:09:26;;;;;;;4.18;3.30;;;;;;;19.37;51.47;99557.59;5043606;27;102911;-68
2022/09/21 09:12:15;;;;;;;3.53;2.92;;;;;;;20.13;52.19;99557.25;5032001;27;104019;-68
2022/09/21 09:14:55;;;;;;;4.30;3.15;;;;;;;17.77;55.05;99563.44;5025400;27;103639;-68
2022/09/21 09:17:38;;;;;;;4.03;2.83;;;;;;;19.40;52.88;99549.28;5027980;27;103319;-69
2022/09/21 09:20:11;;;;;;;3.67;2.80;;;;;;;19.97;52.29;99549.03;5033992;27;103495;-68
2022/09/21 09:22:45;;;;;;;4.10;3.30;;;;;;;19.43;52.68;99546.31;5034070;27;104176;-69
2022/09/21 09:25:20;;;;;;;2.83;2.60;;;;;;;20.07;50.96;99547.13;5036773;27;103472;-69
2022/09/21 09:27:53;;;;;;;5.03;3.33;;;;;;;20.05;50.38;99543.75;5031264;27;103144;-69
2022/09/21 09:30:24;;;;;;;4.00;2.85;;;;;;;20.48;49.21;99544.91;5024642;27;103558;-68
2022/09/21 09:32:58;;;;;;;5.20;3.08;;;;;;;18.30;52.98;99544.44;5028255;27;103147;-69
2022/09/21 09:35:28;;;;;;;3.25;2.30;;;;;;;20.11;49.32;99537.78;5045059;27;104938;-69
2022/09/21 09:38:02;;;;;;;2.65;2.17;;;;;;;19.54;52.25;99540.75;5023172;27;103252;-69
2022/09/21 09:40:56;;;;;;;3.60;2.15;;;;;;;20.77;47.92;99534.78;5031457;27;102733;-68
2022/09/21 09:43:38;;;;;;;2.65;2.30;;;;;;;20.60;50.09;99538.31;5047726;27;104168;-69
2022/09/21 09:46:14;;;;;;;3.20;2.10;;;;;;;20.31;48.88;99535.84;5030926;27;103984;-69
2022/09/21 09:49:01;;;;;;;2.60;2.23;;;;;;;19.77;50.40;99536.72;5028348;27;103256;-68
2022/09/21 09:51:29;;;;;;;3.30;2.00;;;;;;;19.41;51.85;99537.56;5029104;27;102694;-69
2022/09/21 09:54:00;;;;;;;2.70;2.13;;;;;;;20.87;48.71;99532.84;5026367;27;103995;-69
2022/09/21 09:56:28;;;;;;;3.90;2.70;;;;;;;17.68;54.12;99539.34;5026689;27;104617;-69
2022/09/21 09:59:02;;;;;;;3.80;2.93;;;;;;;17.01;56.31;99529.16;5027440;27;103310;-69
2022/09/21 10:01:40;;;;;;;4.45;2.80;;;;;;;16.50;56.77;99534.38;5032609;27;102877;-69
2022/09/21 10:04:11;;;;;;;3.63;2.17;;;;;;;18.91;54.08;99516.41;5023862;27;103845;-67
2022/09/21 10:06:40;;;;;;;3.72;2.70;;;;;;;19.75;50.32;99514.56;5025382;27;102632;-69
2022/09/21 10:09:23;;;;;;;4.28;2.63;;;;;;;18.46;53.08;99518.81;5041178;27;103218;-69
2022/09/21 10:11:52;;;;;;;4.30;2.78;;;;;;;17.69;53.98;99517.84;5026843;27;102793;-69
2022/09/21 10:14:23;;;;;;;3.97;2.72;;;;;;;18.32;54.25;99510.34;5026815;27;103473;-68
2022/09/21 10:16:53;;;;;;;4.00;2.42;;;;;;;18.74;53.94;99510.94;5027239;27;105485;-69
2022/09/21 10:19:24;;;;;;;3.13;2.45;;;;;;;19.87;49.04;99508.03;5027325;27;103421;-69
2022/09/21 10:21:57;;;;;;;3.78;2.70;;;;;;;17.34;55.40;99509.38;5028891;27;102890;-70
2022/09/21 10:24:29;;;;;;;4.50;2.80;;;;;;;17.28;55.54;99509.91;5030244;27;104172;-69
2022/09/21 10:27:05;;;;;;;3.25;2.60;;;;;;;18.16;54.53;99504.72;5026589;27;104233;-69
2022/09/21 10:29:40;;;;;;;3.40;2.17;;;;;;;19.05;51.02;99507.91;5021822;27;103266;-69
2022/09/21 10:32:23;;;;;;;2.78;1.90;;;;;;;19.39;49.02;99500.22;5027504;27;102747;-70
2022/09/21 10:35:15;;;;;;;2.78;1.90;;;;;;;17.05;54.92;99497.69;5023176;27;103762;-70
2022/09/21 10:37:45;;;;;;;2.23;1.70;;;;;;;18.00;54.00;99501.72;5023263;27;103767;-70
2022/09/21 10:40:26;;;;;;;3.47;1.90;;;;;;;17.24;54.35;99497.78;5028863;27;103318;-69
2022/09/21 10:42:55;;;;;;;2.83;1.70;;;;;;;19.03;52.82;99488.44;5028847;27;102667;-70
2022/09/21 10:45:25;;;;;;;2.58;1.55;;;;;;;20.23;50.06;99493.66;5046162;27;102843;-70
2022/09/21 10:47:56;;;;;;;2.00;1.63;;;;;;;20.06;48.83;99493.63;5026967;27;105230;-70
2022/09/21 10:50:27;;;;;;;2.88;1.45;;;;;;;20.66;47.33;99481.31;5043120;27;104189;-70
2022/09/21 10:53:00;;;;;;;2.88;1.58;;;;;;;20.21;47.25;99484.91;5045286;27;103861;-70
2022/09/21 10:55:31;;;;;;;2.28;1.30;;;;;;;20.40;49.60;99477.75;5028593;27;104109;-70
2022/09/21 10:57:59;;;;;;;1.88;1.30;;;;;;;21.66;46.47;99482.44;5023032;27;103666;-70
2022/09/21 11:00:35;;;;;;;2.08;1.33;;;;;;;20.40;47.32;99480.41;5021994;27;103524;-70
2022/09/21 11:03:27;;;;;;;1.70;1.20;;;;;;;18.99;48.18;99486.22;5027682;27;103154;-70
2022/09/21 11:05:58;;;;;;;2.53;1.00;;;;;;;19.15;50.38;99477.56;5022067;27;104393;-70
2022/09/21 11:08:33;;;;;;;1.83;1.00;;;;;;;20.78;45.16;99474.69;5037006;27;105094;-71
2022/09/21 11:11:13;;;;;;;1.60;1.08;;;;;;;21.72;44.79;99476.41;5023902;27;103378;-70
2022/09/21 11:13:49;;;;;;;1.88;1.27;;;;;;;21.09;44.75;99472.41;5022871;27;103104;-70
2022/09/21 11:16:24;;;;;;;1.73;1.10;;;;;;;21.69;44.60;99473.22;5024975;27;102715;-70
2022/09/21 11:18:58;;;;;;;1.63;1.10;;;;;;;20.75;45.06;99473.16;5034150;27;103429;-70
2022/09/21 11:21:37;;;;;;;1.67;1.05;;;;;;;21.96;43.92;99467.59;5027753;27;104593;-71
2022/09/21 11:24:20;;;;;;;1.38;0.85;;;;;;;21.89;44.46;99463.91;5021583;27;103124;-70
2022/09/21 11:26:56;;;;;;;2.38;0.98;;;;;;;22.06;42.35;99462.94;5027397;27;103733;-71
2022/09/21 11:29:29;;;;;;;1.10;0.73;;;;;;;22.43;41.60;99454.38;5034873;27;104093;-70
2022/09/21 11:32:15;;;;;;;2.40;0.80;;;;;;;20.83;44.04;99469.69;5020331;27;103422;-69
2022/09/21 11:35:03;;;;;;;1.77;0.82;;;;;;;22.38;41.29;99464.81;5021243;27;102802;-70
2022/09/21 11:37:45;;;;;;;1.50;0.70;;;;;;;21.33;42.68;99465.31;5028174;27;104067;-70
2022/09/21 11:40:27;;;;;;;1.80;0.70;;;;;;;20.63;44.32;99454.78;5025499;27;103375;-69
2022/09/21 11:43:08;;;;;;;1.20;0.80;;;;;;;21.64;41.95;99445.97;5022525;27;103180;-70
2022/09/21 11:45:58;;;;;;;1.97;0.70;;;;;;;21.97;40.44;99446.94;5034024;27;102820;-70
2022/09/21 11:48:42;;;;;;;1.10;0.50;;;;;;;20.88;41.31;99442.38;5029648;27;102984;-70
2022/09/21 11:51:24;;;;;;;1.80;0.60;;;;;;;20.05;43.24;99444.50;5024065;27;103437;-70
2022/09/21 11:54:20;;;;;;;0.75;0.65;;;;;;;21.55;40.79;99430.81;5015069;27;104468;-71
2022/09/21 11:56:52;;;;;;;1.90;0.60;;;;;;;19.82;45.22;99437.09;5030494;27;104019;-71
2022/09/21 11:59:49;;;;;;;3.03;0.80;;;;;;;19.55;45.44;99429.91;5026482;27;104539;-71